createdAt,value
2018-02-25T00:00:00.780Z,102407.10
2018-02-25T00:02:28.883Z,102409.54
2018-02-25T00:04:57.001Z,102416.16
2018-02-25T00:07:25.149Z,102400.25
2018-02-25T00:09:53.273Z,102401.64
2018-02-25T00:12:21.367Z,102403.08
2018-02-25T00:14:49.485Z,102419.50
2018-02-25T00:17:17.606Z,102413.72
2018-02-25T00:19:45.709Z,102413.73
2018-02-25T00:22:31.540Z,102411.22
2018-02-25T00:24:59.657Z,102424.94
2018-02-25T00:27:27.785Z,102420.02
2018-02-25T00:29:55.886Z,102424.61
2018-02-25T00:32:24.907Z,102432.73
2018-02-25T00:34:53.026Z,102431.04
2018-02-25T00:37:21.149Z,102425.61
2018-02-25T00:39:49.268Z,102417.70
2018-02-25T00:42:17.398Z,102425.57
2018-02-25T00:44:45.516Z,102429.89
2018-02-25T00:47:13.698Z,102434.95
2018-02-25T00:49:41.739Z,102437.02
2018-02-25T00:52:09.890Z,102442.53
2018-02-25T00:54:38.010Z,102451.17
2018-02-25T00:57:06.140Z,102443.67
2018-02-25T00:59:34.255Z,102438.47
2018-02-25T01:02:02.402Z,102449.21
2018-02-25T01:04:30.514Z,102448.14
2018-02-25T01:06:58.627Z,102446.56
2018-02-25T01:09:26.720Z,102443.25
2018-02-25T01:11:54.832Z,102455.80
2018-02-25T01:14:22.948Z,102451.02
2018-02-25T01:16:51.050Z,102457.19
2018-02-25T01:19:19.178Z,102455.95
2018-02-25T01:21:47.310Z,102449.12
2018-02-25T01:24:15.440Z,102459.89
2018-02-25T01:26:43.582Z,102454.78
2018-02-25T01:29:11.675Z,102455.88
2018-02-25T01:31:39.770Z,102455.44
2018-02-25T01:34:07.918Z,102465.66
2018-02-25T01:36:36.031Z,102458.51
2018-02-25T01:39:04.156Z,102459.06
2018-02-25T01:41:32.280Z,102453.08
2018-02-25T01:44:00.408Z,102449.92
2018-02-25T01:46:28.526Z,102450.78
2018-02-25T01:48:56.660Z,102453.72
2018-02-25T01:51:24.782Z,102446.66
2018-02-25T01:53:52.883Z,102441.17
2018-02-25T01:56:21.005Z,102441.45
2018-02-25T01:58:49.122Z,102442.60
2018-02-25T02:01:17.231Z,102439.16
2018-02-25T02:03:45.361Z,102442.14
2018-02-25T02:06:13.468Z,102442.38
2018-02-25T02:08:41.609Z,102446.08
2018-02-25T02:11:09.734Z,102447.11
2018-02-25T02:13:37.828Z,102447.01
2018-02-25T02:16:05.954Z,102456.91
2018-02-25T02:18:34.073Z,102457.16
2018-02-25T02:21:02.198Z,102462.33
2018-02-25T02:23:30.310Z,102466.55
2018-02-25T02:25:58.443Z,102457.05
2018-02-25T02:28:26.561Z,102465.42
2018-02-25T02:30:54.961Z,102454.95
2018-02-25T02:33:23.082Z,102451.70
2018-02-25T02:35:51.210Z,102458.55
2018-02-25T02:38:19.332Z,102462.36
2018-02-25T02:40:47.444Z,102463.34
2018-02-25T02:43:16.041Z,102462.06
2018-02-25T02:45:44.153Z,102458.41
2018-02-25T02:48:12.278Z,102458.29
2018-02-25T02:50:40.421Z,102457.13
2018-02-25T02:53:08.520Z,102457.23
2018-02-25T02:55:36.628Z,102454.05
2018-02-25T02:58:04.738Z,102461.77
2018-02-25T03:00:32.881Z,102467.94
2018-02-25T03:03:00.999Z,102466.16
2018-02-25T03:05:29.114Z,102475.19
2018-02-25T03:07:57.211Z,102473.45
2018-02-25T03:10:25.328Z,102476.62
2018-02-25T03:12:53.452Z,102482.45
2018-02-25T03:15:21.572Z,102476.72
2018-02-25T03:17:49.706Z,102477.47
2018-02-25T03:20:17.815Z,102481.48
2018-02-25T03:22:45.940Z,102485.97
2018-02-25T03:25:14.051Z,102496.95
2018-02-25T03:27:42.161Z,102496.23
2018-02-25T03:30:10.269Z,102498.20
2018-02-25T03:32:38.377Z,102494.05
2018-02-25T03:35:06.502Z,102490.06
2018-02-25T03:37:34.626Z,102494.83
2018-02-25T03:40:02.733Z,102497.58
2018-02-25T03:42:30.858Z,102493.81
2018-02-25T03:44:58.966Z,102493.11
2018-02-25T03:47:27.077Z,102505.73
2018-02-25T03:49:55.204Z,102511.48
2018-02-25T03:52:23.462Z,102513.67
2018-02-25T03:54:51.582Z,102525.58
2018-02-25T03:57:19.710Z,102519.79
2018-02-25T03:59:47.836Z,102536.83
2018-02-25T04:02:16.127Z,102529.94
2018-02-25T04:04:44.238Z,102527.59
2018-02-25T04:07:12.365Z,102530.58
2018-02-25T04:09:40.484Z,102529.37
2018-02-25T04:12:08.587Z,102533.44
2018-02-25T04:14:36.734Z,102537.30
2018-02-25T04:17:04.843Z,102533.68
2018-02-25T04:19:32.968Z,102533.73
2018-02-25T04:22:01.085Z,102542.98
2018-02-25T04:24:29.212Z,102547.86
2018-02-25T04:26:57.339Z,102541.96
2018-02-25T04:29:25.756Z,102547.86
2018-02-25T04:31:54.496Z,102541.76
2018-02-25T04:34:22.644Z,102553.24
2018-02-25T04:36:50.774Z,102554.50
2018-02-25T04:39:18.877Z,102547.63
2018-02-25T04:41:46.999Z,102563.41
2018-02-25T04:44:15.117Z,102560.88
2018-02-25T04:46:43.232Z,102554.27
2018-02-25T04:49:11.352Z,102561.20
2018-02-25T04:51:39.475Z,102565.81
2018-02-25T04:54:07.593Z,102558.61
2018-02-25T04:56:35.710Z,102559.55
2018-02-25T04:59:03.840Z,102572.03
2018-02-25T05:01:31.958Z,102567.40
2018-02-25T05:04:00.070Z,102574.21
2018-02-25T05:06:28.176Z,102578.27
2018-02-25T05:08:56.290Z,102573.29
2018-02-25T05:11:24.427Z,102582.10
2018-02-25T05:13:52.545Z,102584.45
2018-02-25T05:16:20.664Z,102582.73
2018-02-25T05:18:48.786Z,102581.01
2018-02-25T05:21:16.922Z,102575.60
2018-02-25T05:23:45.029Z,102582.69
2018-02-25T05:26:13.165Z,102589.27
2018-02-25T05:28:41.267Z,102582.33
2018-02-25T05:31:09.375Z,102578.46
2018-02-25T05:33:37.484Z,102580.16
2018-02-25T05:36:05.584Z,102573.30
2018-02-25T05:38:33.719Z,102583.99
2018-02-25T05:41:01.856Z,102575.95
2018-02-25T05:43:29.962Z,102582.52
2018-02-25T05:45:58.089Z,102579.34
2018-02-25T05:48:26.220Z,102577.25
2018-02-25T05:50:54.618Z,102582.02
2018-02-25T05:53:22.729Z,102576.55
2018-02-25T05:55:50.851Z,102579.37
2018-02-25T05:58:19.110Z,102577.58
2018-02-25T06:00:47.241Z,102573.50
2018-02-25T06:03:15.352Z,102578.13
2018-02-25T06:05:43.469Z,102576.97
2018-02-25T06:08:11.595Z,102584.22
2018-02-25T06:10:39.719Z,102575.73
2018-02-25T06:13:07.842Z,102576.58
2018-02-25T06:15:35.974Z,102584.53
2018-02-25T06:18:04.090Z,102586.37
2018-02-25T06:20:32.222Z,102599.39
2018-02-25T06:23:00.331Z,102592.01
2018-02-25T06:25:28.473Z,102598.56
2018-02-25T06:27:56.588Z,102602.73
2018-02-25T06:30:24.742Z,102595.64
2018-02-25T06:32:52.846Z,102593.77
2018-02-25T06:35:20.973Z,102603.34
2018-02-25T06:37:49.101Z,102603.63
2018-02-25T06:40:17.221Z,102611.09
2018-02-25T06:42:45.364Z,102606.47
2018-02-25T06:45:13.502Z,102613.83
2018-02-25T06:47:41.622Z,102619.34
2018-02-25T06:50:09.753Z,102620.81
2018-02-25T06:52:37.900Z,102628.23
2018-02-25T06:55:06.051Z,102623.23
2018-02-25T06:57:34.187Z,102627.61
2018-02-25T07:00:02.285Z,102628.34
2018-02-25T07:02:30.403Z,102629.34
2018-02-25T07:04:58.529Z,102635.41
2018-02-25T07:07:26.675Z,102637.61
2018-02-25T07:09:54.785Z,102628.66
2018-02-25T07:12:23.107Z,102630.30
2018-02-25T07:14:51.217Z,102634.61
2018-02-25T07:17:19.389Z,102630.65
2018-02-25T07:19:47.518Z,102637.14
2018-02-25T07:22:15.659Z,102636.17
2018-02-25T07:24:43.798Z,102638.34
2018-02-25T07:27:11.921Z,102638.98
2018-02-25T07:29:40.032Z,102646.81
2018-02-25T07:32:08.166Z,102652.53
2018-02-25T07:34:36.271Z,102652.91
2018-02-25T07:37:04.408Z,102644.83
2018-02-25T07:39:32.592Z,102648.21
2018-02-25T07:42:00.709Z,102653.65
2018-02-25T07:44:28.848Z,102656.05
2018-02-25T07:46:56.943Z,102650.21
2018-02-25T07:49:25.069Z,102653.25
2018-02-25T07:51:53.189Z,102651.90
2018-02-25T07:54:21.288Z,102657.56
2018-02-25T07:56:50.014Z,102654.48
2018-02-25T07:59:18.116Z,102649.80
2018-02-25T08:01:46.243Z,102646.60
2018-02-25T08:04:17.552Z,102653.78
2018-02-25T08:06:45.665Z,102647.16
2018-02-25T08:09:13.771Z,102646.03
2018-02-25T08:11:41.900Z,102654.06
2018-02-25T08:14:10.005Z,102654.64
2018-02-25T08:16:38.127Z,102651.70
2018-02-25T08:19:06.236Z,102658.28
2018-02-25T08:21:34.364Z,102658.39
2018-02-25T08:24:02.487Z,102655.95
2018-02-25T08:26:30.609Z,102651.77
2018-02-25T08:28:58.716Z,102651.92
2018-02-25T08:31:26.849Z,102657.58
2018-02-25T08:33:54.939Z,102661.36
2018-02-25T08:36:23.065Z,102652.39
2018-02-25T08:38:51.164Z,102659.97
2018-02-25T08:41:19.303Z,102655.67
2018-02-25T08:43:47.416Z,102659.86
2018-02-25T08:46:15.537Z,102662.41
2018-02-25T08:48:43.652Z,102668.32
2018-02-25T08:51:11.796Z,102664.56
2018-02-25T08:53:39.912Z,102658.05
2018-02-25T08:56:08.053Z,102659.90
2018-02-25T08:58:36.171Z,102666.38
2018-02-25T09:01:04.281Z,102667.22
2018-02-25T09:03:32.397Z,102668.09
2018-02-25T09:06:00.521Z,102671.46
2018-02-25T09:08:28.656Z,102665.33
2018-02-25T09:10:56.758Z,102668.27
2018-02-25T09:13:28.186Z,102657.78
2018-02-25T09:15:56.291Z,102658.42
2018-02-25T09:18:24.408Z,102659.02
2018-02-25T09:20:52.575Z,102658.27
2018-02-25T09:23:20.973Z,102656.28
2018-02-25T09:25:49.080Z,102659.09
2018-02-25T09:28:17.194Z,102665.08
2018-02-25T09:30:45.337Z,102659.46
2018-02-25T09:33:13.464Z,102660.84
2018-02-25T09:35:41.568Z,102658.00
2018-02-25T09:38:09.706Z,102655.56
2018-02-25T09:40:37.838Z,102659.40
2018-02-25T09:43:05.944Z,102650.20
2018-02-25T09:45:34.083Z,102643.56
2018-02-25T09:48:02.194Z,102649.39
2018-02-25T09:50:30.330Z,102652.27
2018-02-25T09:52:58.454Z,102647.11
2018-02-25T09:55:26.570Z,102651.17
2018-02-25T09:57:54.696Z,102654.97
2018-02-25T10:00:22.816Z,102656.53
2018-02-25T10:02:50.918Z,102652.05
2018-02-25T10:05:19.056Z,102651.70
2018-02-25T10:07:47.168Z,102652.64
2018-02-25T10:10:15.297Z,102653.09
2018-02-25T10:12:43.415Z,102652.31
2018-02-25T10:15:11.530Z,102645.61
2018-02-25T10:17:39.661Z,102645.07
2018-02-25T10:20:07.763Z,102639.95
2018-02-25T10:22:35.892Z,102672.75
2018-02-25T10:25:04.023Z,102652.23
2018-02-25T10:27:32.138Z,102648.95
2018-02-25T10:30:00.254Z,102641.32
2018-02-25T10:32:28.380Z,102638.69
2018-02-25T10:34:56.619Z,102636.05
2018-02-25T10:37:24.741Z,102646.19
2018-02-25T10:39:52.865Z,102648.38
2018-02-25T10:42:21.002Z,102643.05
2018-02-25T10:44:49.127Z,102645.11
2018-02-25T10:47:17.231Z,102637.92
2018-02-25T10:49:45.353Z,102641.45
2018-02-25T10:52:13.460Z,102632.47
2018-02-25T10:54:41.572Z,102627.78
2018-02-25T10:57:09.676Z,102634.92
2018-02-25T10:59:37.802Z,102625.61
2018-02-25T11:02:05.908Z,102627.29
2018-02-25T11:04:34.885Z,102610.29
2018-02-25T11:07:03.025Z,102617.86
2018-02-25T11:09:31.130Z,102623.00
2018-02-25T11:11:59.254Z,102617.16
2018-02-25T11:14:27.370Z,102601.67
2018-02-25T11:16:55.620Z,102601.97
2018-02-25T11:19:23.766Z,102599.98
2018-02-25T11:21:51.833Z,102593.05
2018-02-25T11:24:19.962Z,102603.72
2018-02-25T11:26:48.070Z,102589.97
2018-02-25T11:29:16.217Z,102581.64
2018-02-25T11:31:44.371Z,102579.42
2018-02-25T11:34:12.442Z,102577.26
2018-02-25T11:36:40.605Z,102576.17
2018-02-25T11:39:08.681Z,102579.09
2018-02-25T11:41:36.804Z,102569.63
2018-02-25T11:44:04.918Z,102581.58
2018-02-25T11:46:33.037Z,102565.12
2018-02-25T11:49:01.301Z,102567.22
2018-02-25T11:51:29.440Z,102568.56
2018-02-25T11:53:57.544Z,102566.34
2018-02-25T11:56:25.671Z,102557.11
2018-02-25T11:58:53.781Z,102560.75
2018-02-25T12:01:21.883Z,102549.84
2018-02-25T12:03:49.994Z,102553.51
2018-02-25T12:06:18.111Z,102554.63
2018-02-25T12:08:46.248Z,102545.27
2018-02-25T12:11:14.376Z,102547.95
2018-02-25T12:13:42.503Z,102551.71
2018-02-25T12:16:10.622Z,102549.94
2018-02-25T12:18:38.740Z,102541.38
2018-02-25T12:21:06.835Z,102544.64
2018-02-25T12:23:34.983Z,102536.66
2018-02-25T12:26:03.079Z,102530.23
2018-02-25T12:28:31.221Z,102529.53
2018-02-25T12:30:59.350Z,102532.16
2018-02-25T12:33:27.465Z,102524.87
2018-02-25T12:35:55.595Z,102530.12
2018-02-25T12:38:23.709Z,102529.44
2018-02-25T12:40:51.835Z,102530.56
2018-02-25T12:43:20.295Z,102524.90
2018-02-25T12:45:48.400Z,102523.23
2018-02-25T12:48:16.505Z,102519.19
2018-02-25T12:50:44.613Z,102526.33
2018-02-25T12:53:12.744Z,102503.65
2018-02-25T12:55:40.868Z,102517.41
2018-02-25T12:58:09.033Z,102501.33
2018-02-25T13:00:37.113Z,102506.85
2018-02-25T13:03:05.235Z,102489.47
2018-02-25T13:05:33.357Z,102496.97
2018-02-25T13:08:01.477Z,102491.94
2018-02-25T13:10:29.597Z,102481.42
2018-02-25T13:12:57.794Z,102482.34
2018-02-25T13:15:26.066Z,102484.42
2018-02-25T13:17:54.188Z,102474.27
2018-02-25T13:20:22.289Z,102476.19
2018-02-25T13:22:50.391Z,102469.67
2018-02-25T13:25:18.538Z,102473.45
2018-02-25T13:27:46.658Z,102476.70
2018-02-25T13:30:14.756Z,102464.72
2018-02-25T13:32:42.852Z,102481.84
2018-02-25T13:35:10.981Z,102469.91
2018-02-25T13:37:39.244Z,102473.84
2018-02-25T13:40:07.371Z,102473.22
2018-02-25T13:42:35.493Z,102475.10
2018-02-25T13:45:03.607Z,102484.48
2018-02-25T13:47:31.711Z,102465.71
2018-02-25T13:49:59.828Z,102456.38
2018-02-25T13:52:27.953Z,102457.84
2018-02-25T13:54:56.069Z,102469.89
2018-02-25T13:57:24.194Z,102467.95
2018-02-25T13:59:52.315Z,102456.39
2018-02-25T14:02:20.463Z,102458.76
2018-02-25T14:04:48.557Z,102447.55
2018-02-25T14:07:16.696Z,102449.78
2018-02-25T14:09:44.915Z,102457.98
2018-02-25T14:12:13.040Z,102463.06
2018-02-25T14:14:41.153Z,102453.98
2018-02-25T14:17:09.272Z,102445.61
2018-02-25T14:19:37.423Z,102452.77
2018-02-25T14:22:05.511Z,102453.58
2018-02-25T14:24:33.646Z,102456.78
2018-02-25T14:27:01.740Z,102463.24
2018-02-25T14:29:29.858Z,102451.13
2018-02-25T14:31:57.967Z,102450.97
2018-02-25T14:34:26.100Z,102440.84
2018-02-25T14:36:54.235Z,102453.91
2018-02-25T14:39:22.364Z,102460.87
2018-02-25T14:41:50.491Z,102435.45
2018-02-25T14:44:18.626Z,102451.58
2018-02-25T14:46:46.740Z,102438.50
2018-02-25T14:49:14.857Z,102442.97
2018-02-25T14:51:42.975Z,102436.17
2018-02-25T14:54:11.098Z,102445.22
2018-02-25T14:56:39.202Z,102435.62
2018-02-25T14:59:07.312Z,102440.05
2018-02-25T15:01:35.420Z,102447.38
2018-02-25T15:04:03.541Z,102431.86
2018-02-25T15:06:31.665Z,102437.53
2018-02-25T15:08:59.789Z,102431.79
2018-02-25T15:11:27.893Z,102427.69
2018-02-25T15:13:56.029Z,102422.30
2018-02-25T15:16:24.164Z,102427.00
2018-02-25T15:18:52.290Z,102429.70
2018-02-25T15:21:20.401Z,102424.77
2018-02-25T15:23:48.540Z,102427.92
2018-02-25T15:26:16.640Z,102420.53
2018-02-25T15:28:44.760Z,102423.39
2018-02-25T15:31:12.876Z,102428.77
2018-02-25T15:33:41.007Z,102428.22
2018-02-25T15:36:09.115Z,102426.05
2018-02-25T15:38:37.226Z,102430.05
2018-02-25T15:41:05.343Z,102433.91
2018-02-25T15:43:33.469Z,102427.56
2018-02-25T15:46:01.643Z,102429.16
2018-02-25T15:48:29.710Z,102431.05
2018-02-25T15:50:57.813Z,102425.48
2018-02-25T15:53:25.953Z,102422.83
2018-02-25T15:55:54.067Z,102420.05
2018-02-25T15:58:22.182Z,102419.39
2018-02-25T16:00:50.409Z,102424.19
2018-02-25T16:03:18.539Z,102413.55
2018-02-25T16:05:53.488Z,102418.19
2018-02-25T16:08:21.617Z,102419.89
2018-02-25T16:10:49.757Z,102421.77
2018-02-25T16:13:17.886Z,102422.95
2018-02-25T16:15:45.991Z,102425.28
2018-02-25T16:18:14.102Z,102431.08
2018-02-25T16:20:42.227Z,102433.44
2018-02-25T16:23:10.318Z,102433.57
2018-02-25T16:25:38.435Z,102432.77
2018-02-25T16:28:06.532Z,102440.90
2018-02-25T16:30:34.638Z,102446.45
2018-02-25T16:33:02.754Z,102445.98
2018-02-25T16:35:31.006Z,102451.38
2018-02-25T16:37:59.113Z,102453.08
2018-02-25T16:40:27.278Z,102450.92
2018-02-25T16:42:55.568Z,102447.59
2018-02-25T16:45:23.746Z,102443.48
2018-02-25T16:47:51.869Z,102454.21
2018-02-25T16:50:20.014Z,102454.50
2018-02-25T16:52:48.126Z,102446.00
2018-02-25T16:55:16.242Z,102456.38
2018-02-25T16:57:44.413Z,102458.06
2018-02-25T17:00:12.555Z,102455.18
2018-02-25T17:02:44.809Z,102455.41
2018-02-25T17:05:12.901Z,102457.59
2018-02-25T17:07:41.005Z,102458.95
2018-02-25T17:10:09.215Z,102472.08
2018-02-25T17:12:37.331Z,102465.28
2018-02-25T17:15:05.500Z,102473.56
2018-02-25T17:17:33.678Z,102477.63
2018-02-25T17:20:01.935Z,102475.08
2018-02-25T17:22:30.095Z,102484.66
2018-02-25T17:24:58.245Z,102476.66
2018-02-25T17:27:26.470Z,102480.95
2018-02-25T17:29:54.617Z,102485.77
2018-02-25T17:32:22.773Z,102477.45
2018-02-25T17:34:50.861Z,102478.59
2018-02-25T17:37:18.977Z,102485.52
2018-02-25T17:39:47.074Z,102478.52
2018-02-25T17:42:15.385Z,102474.73
2018-02-25T17:44:43.492Z,102484.07
2018-02-25T17:47:11.618Z,102488.77
2018-02-25T17:49:39.811Z,102493.06
2018-02-25T17:52:08.093Z,102490.14
2018-02-25T17:54:36.309Z,102488.38
2018-02-25T17:57:04.478Z,102488.81
2018-02-25T17:59:32.685Z,102477.91
2018-02-25T18:02:00.863Z,102490.38
2018-02-25T18:04:29.089Z,102482.19
2018-02-25T18:06:57.240Z,102495.25
2018-02-25T18:09:25.494Z,102491.19
2018-02-25T18:11:53.583Z,102488.56
2018-02-25T18:14:21.743Z,102481.01
2018-02-25T18:16:49.923Z,102482.23
2018-02-25T18:19:18.152Z,102488.88
2018-02-25T18:21:49.739Z,102484.47
2018-02-25T18:24:17.875Z,102486.95
2018-02-25T18:26:46.002Z,102508.13
2018-02-25T18:29:14.233Z,102488.09
2018-02-25T18:31:42.675Z,102505.11
2018-02-25T18:34:10.908Z,102501.14
2018-02-25T18:36:39.694Z,102506.98
2018-02-25T18:39:07.939Z,102508.56
2018-02-25T18:41:36.208Z,102503.28
2018-02-25T18:44:04.345Z,102511.86
2018-02-25T18:46:32.723Z,102512.47
2018-02-25T18:49:00.842Z,102515.25
2018-02-25T18:51:28.956Z,102522.15
2018-02-25T18:53:57.146Z,102528.41
2018-02-25T18:56:25.270Z,102523.08
2018-02-25T18:58:53.390Z,102531.55
2018-02-25T19:01:21.517Z,102514.48
2018-02-25T19:03:49.633Z,102529.68
2018-02-25T19:06:17.761Z,102524.81
2018-02-25T19:08:45.890Z,102524.84
2018-02-25T19:11:14.015Z,102526.77
2018-02-25T19:13:42.128Z,102526.73
2018-02-25T19:16:10.251Z,102539.55
2018-02-25T19:18:38.368Z,102538.66
2018-02-25T19:21:06.502Z,102533.09
2018-02-25T19:23:34.616Z,102539.42
2018-02-25T19:26:02.713Z,102535.93
2018-02-25T19:28:30.842Z,102543.41
2018-02-25T19:30:58.957Z,102543.47
2018-02-25T19:33:27.088Z,102544.26
2018-02-25T19:36:00.712Z,102546.11
2018-02-25T19:38:34.355Z,102551.25
2018-02-25T19:41:08.893Z,102547.52
2018-02-25T19:43:36.999Z,102554.88
2018-02-25T19:46:05.122Z,102545.53
2018-02-25T19:48:33.258Z,102546.97
2018-02-25T19:51:01.356Z,102550.75
2018-02-25T19:53:29.519Z,102560.67
2018-02-25T19:55:57.619Z,102555.92
2018-02-25T19:58:25.768Z,102556.84
2018-02-25T20:00:54.284Z,102554.38
2018-02-25T20:03:22.419Z,102556.84
2018-02-25T20:05:50.540Z,102561.91
2018-02-25T20:08:18.662Z,102568.03
2018-02-25T20:10:46.797Z,102571.39
2018-02-25T20:13:14.920Z,102577.98
2018-02-25T20:15:43.037Z,102571.56
2018-02-25T20:18:11.153Z,102571.23
2018-02-25T20:20:39.321Z,102567.72
2018-02-25T20:23:07.426Z,102571.19
2018-02-25T20:25:35.647Z,102562.85
2018-02-25T20:28:03.763Z,102567.59
2018-02-25T20:30:31.891Z,102574.84
2018-02-25T20:33:00.005Z,102569.61
2018-02-25T20:35:28.126Z,102577.20
2018-02-25T20:37:56.254Z,102575.90
2018-02-25T20:40:24.364Z,102574.33
2018-02-25T20:42:52.763Z,102574.52
2018-02-25T20:45:20.865Z,102573.84
2018-02-25T20:47:49.015Z,102574.64
2018-02-25T20:50:17.115Z,102578.46
2018-02-25T20:52:45.263Z,102577.28
2018-02-25T20:55:13.379Z,102582.89
2018-02-25T20:57:41.486Z,102578.93
2018-02-25T21:00:09.626Z,102575.01
2018-02-25T21:02:37.719Z,102573.69
2018-02-25T21:05:05.845Z,102583.36
2018-02-25T21:07:33.970Z,102582.69
2018-02-25T21:10:02.079Z,102579.33
2018-02-25T21:12:30.215Z,102578.98
2018-02-25T21:14:58.328Z,102577.75
2018-02-25T21:17:26.464Z,102582.36
2018-02-25T21:19:54.574Z,102582.98
2018-02-25T21:22:22.686Z,102588.03
2018-02-25T21:24:50.809Z,102592.51
2018-02-25T21:27:18.914Z,102589.45
2018-02-25T21:29:47.054Z,102590.40
2018-02-25T21:32:15.166Z,102593.47
2018-02-25T21:34:43.286Z,102599.42
2018-02-25T21:37:11.425Z,102599.37
2018-02-25T21:39:43.283Z,102601.52
2018-02-25T21:42:11.408Z,102598.75
2018-02-25T21:44:39.535Z,102592.34
2018-02-25T21:47:07.636Z,102594.97
2018-02-25T21:49:35.761Z,102603.55
2018-02-25T21:52:03.872Z,102598.30
2018-02-25T21:54:37.512Z,102597.09
2018-02-25T21:57:11.154Z,102594.38
2018-02-25T21:59:48.262Z,102604.73
2018-02-25T22:02:21.890Z,102607.23
2018-02-25T22:04:50.024Z,102595.98
2018-02-25T22:07:18.124Z,102601.95
2018-02-25T22:09:46.258Z,102598.70
2018-02-25T22:12:14.399Z,102600.16
2018-02-25T22:14:42.501Z,102603.13
2018-02-25T22:17:10.681Z,102602.72
2018-02-25T22:19:38.812Z,102597.64
2018-02-25T22:22:06.931Z,102609.84
2018-02-25T22:24:35.387Z,102601.25
2018-02-25T22:27:03.487Z,102595.49
2018-02-25T22:29:31.890Z,102597.20
2018-02-25T22:32:00.162Z,102594.47
2018-02-25T22:34:28.321Z,102596.39
2018-02-25T22:36:56.448Z,102606.32
2018-02-25T22:39:24.581Z,102602.63
2018-02-25T22:41:52.717Z,102595.00
2018-02-25T22:44:20.913Z,102610.69
2018-02-25T22:46:49.018Z,102605.83
2018-02-25T22:49:17.281Z,102599.02
2018-02-25T22:51:45.493Z,102598.11
2018-02-25T22:54:13.624Z,102600.39
2018-02-25T22:56:41.865Z,102594.66
2018-02-25T22:59:09.973Z,102598.75
2018-02-25T23:01:38.385Z,102606.37
2018-02-25T23:04:06.609Z,102594.71
2018-02-25T23:06:35.194Z,102600.39
2018-02-25T23:09:03.368Z,102607.67
2018-02-25T23:11:31.655Z,102615.03
2018-02-25T23:14:00.595Z,102605.53
2018-02-25T23:16:33.775Z,102609.66
2018-02-25T23:19:04.316Z,102614.76
2018-02-25T23:21:33.161Z,102604.70
2018-02-25T23:24:02.702Z,102614.14
2018-02-25T23:26:32.631Z,102610.50
2018-02-25T23:29:02.024Z,102620.63
2018-02-25T23:31:32.253Z,102610.72
2018-02-25T23:34:01.645Z,102609.09
2018-02-25T23:36:30.404Z,102613.23
2018-02-25T23:39:00.505Z,102610.41
2018-02-25T23:41:29.869Z,102610.58
2018-02-25T23:43:58.820Z,102605.64
2018-02-25T23:46:28.653Z,102610.59
2018-02-25T23:48:58.355Z,102605.69
2018-02-25T23:51:27.158Z,102610.60
2018-02-25T23:53:56.553Z,102607.09
2018-02-25T23:56:26.221Z,102607.80
2018-02-25T23:58:57.602Z,102609.30
